createdAt,value
2023-03-02T00:01:38.837Z,100.00
2023-03-02T00:05:49.100Z,100.00
2023-03-02T00:09:53.631Z,100.00
2023-03-02T00:13:57.133Z,100.00
2023-03-02T00:18:00.130Z,100.00
2023-03-02T00:22:11.156Z,100.00
2023-03-02T00:26:13.498Z,100.00
2023-03-02T00:30:17.517Z,100.00
2023-03-02T00:34:20.104Z,100.00
2023-03-02T00:38:20.544Z,100.00
2023-03-02T00:42:21.696Z,100.00
2023-03-02T00:46:29.374Z,100.00
2023-03-02T00:50:29.528Z,100.00
2023-03-02T00:54:44.821Z,100.00
2023-03-02T00:58:45.873Z,100.00
2023-03-02T01:02:55.398Z,100.00
2023-03-02T01:06:56.469Z,100.00
2023-03-02T01:11:07.349Z,100.00
2023-03-02T01:15:13.961Z,100.00
2023-03-02T01:19:16.648Z,100.00
2023-03-02T01:23:17.800Z,100.00
2023-03-02T01:27:19.035Z,100.00
2023-03-02T01:31:21.832Z,100.00
2023-03-02T01:35:26.859Z,100.00
2023-03-02T01:39:27.927Z,100.00
2023-03-02T01:43:29.550Z,100.00
2023-03-02T01:47:34.633Z,100.00
2023-03-02T01:51:42.129Z,100.00
2023-03-02T01:55:53.544Z,100.00
2023-03-02T01:59:57.049Z,100.00
2023-03-02T02:03:57.829Z,100.00
2023-03-02T02:08:03.440Z,100.00
2023-03-02T02:12:06.575Z,100.00
2023-03-02T02:16:08.031Z,100.00
2023-03-02T02:20:16.443Z,100.00
2023-03-02T02:24:26.797Z,100.00
2023-03-02T02:28:34.331Z,100.00
2023-03-02T02:32:36.531Z,100.00
2023-03-02T02:36:41.111Z,100.00
2023-03-02T02:40:54.880Z,100.00
2023-03-02T02:45:00.014Z,100.00
2023-03-02T02:49:00.546Z,100.00
2023-03-02T02:53:03.646Z,100.00
2023-03-02T02:57:05.353Z,100.00
2023-03-02T03:01:10.516Z,100.00
2023-03-02T03:05:16.114Z,100.00
2023-03-02T03:09:16.768Z,100.00
2023-03-02T03:13:18.324Z,100.00
2023-03-02T03:17:21.320Z,100.00
2023-03-02T03:21:22.370Z,100.00
2023-03-02T03:25:23.828Z,100.00
2023-03-02T03:29:25.496Z,100.00
2023-03-02T03:33:29.523Z,100.00
2023-03-02T03:41:49.843Z,100.00
2023-03-02T03:45:51.231Z,100.00
2023-03-02T03:49:55.112Z,100.00
2023-03-02T03:54:02.625Z,100.00
2023-03-02T03:58:03.974Z,100.00
2023-03-02T04:02:07.073Z,100.00
2023-03-02T04:06:19.783Z,100.00
2023-03-02T04:10:21.366Z,100.00
2023-03-02T04:14:22.120Z,100.00
2023-03-02T04:18:24.122Z,100.00
2023-03-02T04:22:27.071Z,100.00
2023-03-02T04:26:28.844Z,100.00
2023-03-02T04:30:30.408Z,100.00
2023-03-02T04:34:32.591Z,100.00
2023-03-02T04:38:57.913Z,100.00
2023-03-02T04:43:04.805Z,100.00
2023-03-02T04:47:11.906Z,100.00
2023-03-02T04:51:24.260Z,100.00
2023-03-02T04:55:35.814Z,100.00
2023-03-02T04:59:42.608Z,100.00
2023-03-02T05:03:53.173Z,100.00
2023-03-02T05:07:58.837Z,100.00
2023-03-02T05:12:04.598Z,100.00
2023-03-02T05:16:11.753Z,100.00
2023-03-02T05:20:15.898Z,100.00
2023-03-02T05:24:21.060Z,100.00
2023-03-02T05:28:23.649Z,100.00
2023-03-02T05:32:28.366Z,100.00
2023-03-02T05:36:47.048Z,100.00
2023-03-02T05:41:00.289Z,100.00
2023-03-02T05:45:10.962Z,100.00
2023-03-02T05:49:14.981Z,100.00
2023-03-02T05:53:25.446Z,100.00
2023-03-02T05:57:32.644Z,100.00
2023-03-02T06:01:40.285Z,100.00
2023-03-02T06:05:50.635Z,100.00
2023-03-02T06:09:56.357Z,100.00
2023-03-02T06:14:03.871Z,100.00
2023-03-02T06:22:25.342Z,100.00
2023-03-02T06:26:29.332Z,100.00
2023-03-02T06:30:35.430Z,100.00
2023-03-02T06:34:39.979Z,100.00
2023-03-02T06:38:44.617Z,100.00
2023-03-02T06:42:48.333Z,100.00
2023-03-02T06:46:50.464Z,100.00
2023-03-02T06:50:54.222Z,100.00
2023-03-02T06:55:01.798Z,100.00
2023-03-02T06:59:04.915Z,100.00
2023-03-02T07:03:12.924Z,100.00
2023-03-02T07:07:23.443Z,100.00
2023-03-02T07:11:35.008Z,100.00
2023-03-02T07:15:37.047Z,100.00
2023-03-02T07:19:40.832Z,100.00
2023-03-02T07:23:41.726Z,100.00
2023-03-02T07:27:45.092Z,100.00
2023-03-02T07:31:45.895Z,100.00
2023-03-02T07:35:49.310Z,100.00
2023-03-02T07:39:50.549Z,100.00
2023-03-02T07:43:54.261Z,100.00
2023-03-02T07:47:57.146Z,100.00
2023-03-02T07:51:58.409Z,100.00
2023-03-02T07:56:04.764Z,100.00
2023-03-02T08:00:09.018Z,100.00
2023-03-02T08:04:15.285Z,100.00
2023-03-02T08:08:25.494Z,100.00
2023-03-02T08:12:43.316Z,100.00
2023-03-02T08:16:54.585Z,100.00
2023-03-02T08:20:55.921Z,100.00
2023-03-02T08:25:00.495Z,100.00
2023-03-02T08:29:01.541Z,100.00
2023-03-02T08:33:12.107Z,100.00
2023-03-02T08:37:27.981Z,100.00
2023-03-02T08:41:50.966Z,100.00
2023-03-02T08:46:15.531Z,100.00
2023-03-02T08:50:22.251Z,100.00
2023-03-02T08:54:23.311Z,100.00
2023-03-02T08:58:24.909Z,100.00
2023-03-02T09:02:35.089Z,100.00
2023-03-02T09:06:43.165Z,100.00
2023-03-02T09:10:47.061Z,100.00
2023-03-02T09:14:53.856Z,100.00
2023-03-02T09:18:54.492Z,100.00
2023-03-02T09:22:58.316Z,100.00
2023-03-02T09:27:00.109Z,100.00
2023-03-02T09:31:03.893Z,100.00
2023-03-02T09:35:07.279Z,100.00
2023-03-02T09:39:15.523Z,100.00
2023-03-02T09:43:24.251Z,100.00
2023-03-02T09:47:35.757Z,100.00
2023-03-02T09:51:44.071Z,100.00
2023-03-02T09:55:48.943Z,100.00
2023-03-02T09:59:53.346Z,100.00
2023-03-02T10:03:58.425Z,100.00
2023-03-02T10:08:02.618Z,100.00
2023-03-02T10:12:27.829Z,100.00
2023-03-02T10:16:38.516Z,100.00
2023-03-02T10:20:50.908Z,100.00
2023-03-02T10:24:54.434Z,100.00
2023-03-02T10:29:34.203Z,100.00
2023-03-02T10:33:49.437Z,100.00
2023-03-02T10:37:56.363Z,100.00
2023-03-02T10:42:04.277Z,100.00
2023-03-02T10:46:22.529Z,100.00
2023-03-02T10:50:32.901Z,100.00
2023-03-02T11:05:17.795Z,100.00
2023-03-02T11:10:16.523Z,100.00
2023-03-02T11:15:11.870Z,100.00
2023-03-02T11:19:19.782Z,100.00
2023-03-02T11:23:26.880Z,100.00
2023-03-02T11:27:33.967Z,100.00
2023-03-02T11:31:49.046Z,100.00
2023-03-02T11:36:10.070Z,100.00
2023-03-02T11:40:24.330Z,100.00
2023-03-02T11:44:35.520Z,100.00
2023-03-02T11:53:06.133Z,100.00
2023-03-02T11:57:07.028Z,100.00
2023-03-02T12:01:07.681Z,97.65
2023-03-02T12:05:31.819Z,97.43
2023-03-02T12:09:42.962Z,97.52
2023-03-02T12:13:49.058Z,97.41
2023-03-02T12:17:52.445Z,93.50
2023-03-02T12:22:12.122Z,94.40
2023-03-02T12:26:31.783Z,96.08
2023-03-02T12:30:47.102Z,93.78
2023-03-02T12:35:03.410Z,91.27
2023-03-02T12:39:22.081Z,92.73
2023-03-02T12:43:30.598Z,93.49
2023-03-02T12:47:38.403Z,93.25
2023-03-02T12:51:55.420Z,92.29
2023-03-02T12:56:01.665Z,91.39
2023-03-02T13:00:18.442Z,89.76
2023-03-02T13:04:28.618Z,90.52
2023-03-02T13:08:38.841Z,88.83
2023-03-02T13:12:48.511Z,88.24
2023-03-02T13:16:56.477Z,88.48
2023-03-02T13:21:06.988Z,89.60
2023-03-02T13:25:10.091Z,88.26
2023-03-02T13:29:23.070Z,89.03
2023-03-02T13:33:34.826Z,89.19
2023-03-02T13:37:47.369Z,87.52
2023-03-02T13:42:00.247Z,87.91
2023-03-02T13:46:08.012Z,87.62
2023-03-02T13:50:28.492Z,87.34
2023-03-02T13:54:39.476Z,87.09
2023-03-02T13:58:41.252Z,86.37
2023-03-02T14:02:46.181Z,87.58
2023-03-02T14:06:49.985Z,87.97
2023-03-02T14:10:53.964Z,89.42
2023-03-02T14:14:59.136Z,90.30
2023-03-02T14:19:17.931Z,90.71
2023-03-02T14:23:21.364Z,90.62
2023-03-02T14:27:27.516Z,90.82
2023-03-02T14:31:35.650Z,90.95
2023-03-02T14:35:42.125Z,90.93
2023-03-02T14:39:47.051Z,91.18
2023-03-02T14:43:48.203Z,90.68
2023-03-02T14:47:48.857Z,90.36
2023-03-02T14:51:57.472Z,91.78
2023-03-02T14:56:01.906Z,92.72
2023-03-02T15:00:03.112Z,92.71
2023-03-02T15:04:04.211Z,92.92
2023-03-02T15:08:11.618Z,93.10
2023-03-02T15:12:15.433Z,92.82
2023-03-02T15:16:26.464Z,93.00
2023-03-02T15:20:30.441Z,93.65
2023-03-02T15:24:41.328Z,93.21
2023-03-02T15:28:46.418Z,94.71
2023-03-02T15:32:49.777Z,94.80
2023-03-02T15:36:51.849Z,95.06
2023-03-02T15:40:55.864Z,93.96
2023-03-02T15:44:56.615Z,94.36
2023-03-02T15:48:57.923Z,95.71
2023-03-02T15:52:59.014Z,95.15
2023-03-02T15:57:04.526Z,93.50
2023-03-02T16:01:10.457Z,94.17
2023-03-02T16:05:11.657Z,94.59
2023-03-02T16:09:19.403Z,94.40
2023-03-02T16:13:26.085Z,94.02
2023-03-02T16:17:28.059Z,94.56
2023-03-02T16:21:32.980Z,94.29
2023-03-02T16:25:35.280Z,94.87
2023-03-02T16:29:39.819Z,94.16
2023-03-02T16:33:57.355Z,93.62
2023-03-02T16:38:14.282Z,94.03
2023-03-02T16:42:19.329Z,93.59
2023-03-02T16:46:22.775Z,93.89
2023-03-02T16:50:23.790Z,94.80
2023-03-02T16:54:26.781Z,94.69
2023-03-02T16:58:30.592Z,95.33
2023-03-02T17:02:33.079Z,94.63
2023-03-02T17:06:33.386Z,94.90
2023-03-02T17:10:43.975Z,94.69
2023-03-02T17:14:45.105Z,95.73
2023-03-02T17:18:48.440Z,96.00
2023-03-02T17:22:49.802Z,95.69
2023-03-02T17:26:50.828Z,95.13
2023-03-02T17:30:52.455Z,95.80
2023-03-02T17:34:55.108Z,95.24
2023-03-02T17:38:58.710Z,95.90
2023-03-02T17:42:59.077Z,95.93
2023-03-02T17:47:00.681Z,96.59
2023-03-02T17:51:03.619Z,96.93
2023-03-02T17:55:04.490Z,96.19
2023-03-02T17:59:06.398Z,96.14
2023-03-02T18:03:09.727Z,96.14
2023-03-02T18:07:12.830Z,95.90
2023-03-02T18:11:13.674Z,95.77
2023-03-02T18:15:14.939Z,95.81
2023-03-02T18:19:15.360Z,95.86
2023-03-02T18:23:17.141Z,95.00
2023-03-02T18:27:17.553Z,96.45
2023-03-02T18:31:19.156Z,97.33
2023-03-02T18:35:20.196Z,99.83
2023-03-02T18:39:37.614Z,100.00
2023-03-02T18:43:41.529Z,100.00
2023-03-02T18:47:46.219Z,100.00
2023-03-02T18:52:06.260Z,100.00
2023-03-02T18:56:19.405Z,100.00
2023-03-02T19:00:28.347Z,100.00
2023-03-02T19:04:34.255Z,100.00
2023-03-02T19:08:36.408Z,100.00
2023-03-02T19:12:40.719Z,100.00
2023-03-02T19:16:44.559Z,100.00
2023-03-02T19:20:47.537Z,100.00
2023-03-02T19:24:48.385Z,100.00
2023-03-02T19:28:57.220Z,100.00
2023-03-02T19:32:58.374Z,100.00
2023-03-02T19:37:04.442Z,100.00
2023-03-02T19:41:09.482Z,100.00
2023-03-02T19:45:24.222Z,100.00
2023-03-02T19:49:42.209Z,100.00
2023-03-02T19:53:47.521Z,100.00
2023-03-02T19:57:55.825Z,100.00
2023-03-02T20:01:59.548Z,100.00
2023-03-02T20:06:01.227Z,100.00
2023-03-02T20:10:03.030Z,100.00
2023-03-02T20:14:33.323Z,100.00
2023-03-02T20:18:40.054Z,100.00
2023-03-02T20:22:40.958Z,100.00
2023-03-02T20:26:42.355Z,100.00
2023-03-02T20:30:57.018Z,100.00
2023-03-02T20:35:30.360Z,100.00
2023-03-02T20:40:06.610Z,100.00
2023-03-02T20:55:11.371Z,100.00
2023-03-02T20:59:42.168Z,100.00
2023-03-02T21:04:06.878Z,100.00
2023-03-02T21:08:16.353Z,100.00
2023-03-02T21:12:24.972Z,100.00
2023-03-02T21:16:30.825Z,100.00
2023-03-02T21:20:39.346Z,100.00
2023-03-02T21:24:41.319Z,100.00
2023-03-02T21:28:56.505Z,100.00
2023-03-02T21:32:57.865Z,100.00
2023-03-02T21:37:09.035Z,100.00
2023-03-02T21:41:13.275Z,100.00
2023-03-02T21:45:20.400Z,100.00
2023-03-02T21:49:23.569Z,100.00
2023-03-02T21:53:29.636Z,100.00
2023-03-02T21:57:31.199Z,100.00
2023-03-02T22:01:37.173Z,100.00
2023-03-02T22:05:40.284Z,100.00
2023-03-02T22:09:41.371Z,100.00
2023-03-02T22:13:45.751Z,100.00
2023-03-02T22:17:55.622Z,100.00
2023-03-02T22:22:08.136Z,100.00
2023-03-02T22:26:22.936Z,100.00
2023-03-02T22:30:38.405Z,100.00
2023-03-02T22:34:57.496Z,100.00
2023-03-02T22:39:26.229Z,100.00
2023-03-02T22:43:51.387Z,100.00
2023-03-02T22:48:25.745Z,100.00
2023-03-02T22:52:49.420Z,100.00
2023-03-02T22:57:11.152Z,100.00
2023-03-02T23:01:45.827Z,100.00
2023-03-02T23:06:19.102Z,100.00
2023-03-02T23:11:28.249Z,100.00
2023-03-02T23:15:31.247Z,100.00
2023-03-02T23:25:54.872Z,100.00
2023-03-02T23:35:14.698Z,100.00
2023-03-02T23:39:30.288Z,100.00
2023-03-02T23:43:43.425Z,100.00
2023-03-02T23:52:30.447Z,100.00
2023-03-02T23:56:42.986Z,100.00
